sensor_id;sensor_type;location;lat;lon;timestamp;P1;durP1;ratioP1;P2;durP2;ratioP2
35550;SDS011;21655;46.056;13.616;2023-02-01T00:01:53;48.70;;;19.48;;
35550;SDS011;21655;46.056;13.616;2023-02-01T00:04:19;55.85;;;19.15;;
35550;SDS011;21655;46.056;13.616;2023-02-01T00:06:44;52.92;;;20.27;;
35550;SDS011;21655;46.056;13.616;2023-02-01T00:09:10;54.70;;;19.67;;
35550;SDS011;21655;46.056;13.616;2023-02-01T00:11:35;48.17;;;18.25;;
35550;SDS011;21655;46.056;13.616;2023-02-01T00:14:00;51.40;;;19.38;;
35550;SDS011;21655;46.056;13.616;2023-02-01T00:16:28;48.75;;;19.05;;
35550;SDS011;21655;46.056;13.616;2023-02-01T00:18:59;50.80;;;20.45;;
35550;SDS011;21655;46.056;13.616;2023-02-01T01:02:18;51.33;;;20.08;;
35550;SDS011;21655;46.056;13.616;2023-02-01T01:04:44;53.10;;;17.80;;
35550;SDS011;21655;46.056;13.616;2023-02-01T01:07:09;41.78;;;18.30;;
35550;SDS011;21655;46.056;13.616;2023-02-01T01:09:35;44.33;;;17.40;;
35550;SDS011;21655;46.056;13.616;2023-02-01T01:12:00;47.35;;;18.48;;
35550;SDS011;21655;46.056;13.616;2023-02-01T01:14:30;48.22;;;18.80;;
35550;SDS011;21655;46.056;13.616;2023-02-01T01:16:57;49.80;;;18.02;;
35550;SDS011;21655;46.056;13.616;2023-02-01T01:19:22;39.85;;;17.55;;
35550;SDS011;21655;46.056;13.616;2023-02-01T01:21:48;42.95;;;17.50;;
35550;SDS011;21655;46.056;13.616;2023-02-01T01:24:13;42.08;;;17.80;;
35550;SDS011;21655;46.056;13.616;2023-02-01T01:26:40;49.60;;;18.15;;
35550;SDS011;21655;46.056;13.616;2023-02-01T01:29:05;42.40;;;17.50;;
35550;SDS011;21655;46.056;13.616;2023-02-01T01:31:31;45.95;;;18.08;;
35550;SDS011;21655;46.056;13.616;2023-02-01T01:33:57;49.40;;;17.75;;
35550;SDS011;21655;46.056;13.616;2023-02-01T01:36:24;47.20;;;18.23;;
35550;SDS011;21655;46.056;13.616;2023-02-01T01:38:52;43.00;;;17.13;;
35550;SDS011;21655;46.056;13.616;2023-02-01T01:41:29;44.00;;;17.83;;
35550;SDS011;21655;46.056;13.616;2023-02-01T01:46:27;49.70;;;18.95;;
35550;SDS011;21655;46.056;13.616;2023-02-01T01:49:05;49.15;;;17.95;;
35550;SDS011;21655;46.056;13.616;2023-02-01T01:51:38;48.50;;;17.92;;
35550;SDS011;21655;46.056;13.616;2023-02-01T01:57:10;46.28;;;18.13;;
35550;SDS011;21655;46.056;13.616;2023-02-01T01:59:40;41.22;;;17.50;;
35550;SDS011;21655;46.056;13.616;2023-02-01T02:02:10;42.45;;;16.95;;
35550;SDS011;21655;46.056;13.616;2023-02-01T02:04:36;42.88;;;15.85;;
35550;SDS011;21655;46.056;13.616;2023-02-01T02:07:07;36.78;;;16.23;;
35550;SDS011;21655;46.056;13.616;2023-02-01T02:09:37;41.65;;;15.48;;
35550;SDS011;21655;46.056;13.616;2023-02-01T02:12:02;39.67;;;14.68;;
35550;SDS011;21655;46.056;13.616;2023-02-01T02:14:28;37.17;;;15.10;;
35550;SDS011;21655;46.056;13.616;2023-02-01T03:47:26;25.30;;;10.90;;
35550;SDS011;21655;46.056;13.616;2023-02-01T03:49:57;24.90;;;10.32;;
35550;SDS011;21655;46.056;13.616;2023-02-01T03:52:28;27.67;;;10.70;;
35550;SDS011;21655;46.056;13.616;2023-02-01T03:54:57;28.30;;;11.35;;
35550;SDS011;21655;46.056;13.616;2023-02-01T03:57:27;23.27;;;10.38;;
35550;SDS011;21655;46.056;13.616;2023-02-01T04:00:03;28.00;;;11.00;;
35550;SDS011;21655;46.056;13.616;2023-02-01T04:02:35;23.48;;;10.38;;
35550;SDS011;21655;46.056;13.616;2023-02-01T04:05:00;28.35;;;11.13;;
35550;SDS011;21655;46.056;13.616;2023-02-01T04:07:26;22.98;;;10.75;;
35550;SDS011;21655;46.056;13.616;2023-02-01T04:09:51;29.05;;;11.13;;
35550;SDS011;21655;46.056;13.616;2023-02-01T04:12:16;22.25;;;9.55;;
35550;SDS011;21655;46.056;13.616;2023-02-01T04:14:42;26.70;;;10.40;;
35550;SDS011;21655;46.056;13.616;2023-02-01T04:17:07;26.48;;;10.15;;
35550;SDS011;21655;46.056;13.616;2023-02-01T04:19:33;24.13;;;10.38;;
35550;SDS011;21655;46.056;13.616;2023-02-01T04:21:58;22.48;;;10.80;;
35550;SDS011;21655;46.056;13.616;2023-02-01T04:24:24;26.23;;;10.45;;
35550;SDS011;21655;46.056;13.616;2023-02-01T04:26:49;26.52;;;10.43;;
35550;SDS011;21655;46.056;13.616;2023-02-01T04:29:15;27.20;;;10.80;;
35550;SDS011;21655;46.056;13.616;2023-02-01T04:31:40;24.08;;;9.95;;
35550;SDS011;21655;46.056;13.616;2023-02-01T04:34:06;23.30;;;9.48;;
35550;SDS011;21655;46.056;13.616;2023-02-01T04:36:31;28.63;;;10.20;;
35550;SDS011;21655;46.056;13.616;2023-02-01T04:38:57;22.15;;;9.63;;
35550;SDS011;21655;46.056;13.616;2023-02-01T04:41:22;30.08;;;10.40;;
35550;SDS011;21655;46.056;13.616;2023-02-01T04:43:49;21.88;;;10.05;;
35550;SDS011;21655;46.056;13.616;2023-02-01T04:46:15;23.23;;;10.18;;
35550;SDS011;21655;46.056;13.616;2023-02-01T04:48:41;24.08;;;9.75;;
35550;SDS011;21655;46.056;13.616;2023-02-01T04:51:07;23.65;;;10.50;;
35550;SDS011;21655;46.056;13.616;2023-02-01T04:53:33;23.70;;;10.02;;
35550;SDS011;21655;46.056;13.616;2023-02-01T04:55:59;24.83;;;10.18;;
35550;SDS011;21655;46.056;13.616;2023-02-01T04:58:24;22.55;;;10.18;;
35550;SDS011;21655;46.056;13.616;2023-02-01T05:00:50;26.83;;;10.55;;
35550;SDS011;21655;46.056;13.616;2023-02-01T05:03:16;23.00;;;9.75;;
35550;SDS011;21655;46.056;13.616;2023-02-01T05:05:42;22.13;;;9.75;;
35550;SDS011;21655;46.056;13.616;2023-02-01T05:08:08;22.73;;;10.07;;
35550;SDS011;21655;46.056;13.616;2023-02-01T05:10:33;24.60;;;9.98;;
35550;SDS011;21655;46.056;13.616;2023-02-01T05:12:59;22.25;;;9.80;;
35550;SDS011;21655;46.056;13.616;2023-02-01T05:18:08;25.70;;;10.07;;
35550;SDS011;21655;46.056;13.616;2023-02-01T05:20:34;23.85;;;9.80;;
35550;SDS011;21655;46.056;13.616;2023-02-01T05:23:00;25.15;;;9.73;;
35550;SDS011;21655;46.056;13.616;2023-02-01T05:25:25;29.60;;;11.23;;
35550;SDS011;21655;46.056;13.616;2023-02-01T05:27:51;24.80;;;10.68;;
35550;SDS011;21655;46.056;13.616;2023-02-01T05:30:16;21.77;;;10.60;;
35550;SDS011;21655;46.056;13.616;2023-02-01T05:32:42;30.77;;;13.55;;
35550;SDS011;21655;46.056;13.616;2023-02-01T05:35:07;27.20;;;11.10;;
35550;SDS011;21655;46.056;13.616;2023-02-01T05:37:33;28.33;;;10.18;;
35550;SDS011;21655;46.056;13.616;2023-02-01T05:39:59;29.52;;;10.02;;
35550;SDS011;21655;46.056;13.616;2023-02-01T05:42:24;27.48;;;10.80;;
35550;SDS011;21655;46.056;13.616;2023-02-01T05:44:50;26.65;;;10.50;;
35550;SDS011;21655;46.056;13.616;2023-02-01T05:47:15;27.27;;;10.73;;
35550;SDS011;21655;46.056;13.616;2023-02-01T05:49:41;24.92;;;10.57;;
35550;SDS011;21655;46.056;13.616;2023-02-01T05:52:06;31.48;;;11.73;;
35550;SDS011;21655;46.056;13.616;2023-02-01T05:54:32;32.63;;;11.40;;
35550;SDS011;21655;46.056;13.616;2023-02-01T05:56:57;26.17;;;10.57;;
35550;SDS011;21655;46.056;13.616;2023-02-01T05:59:22;24.02;;;10.48;;
35550;SDS011;21655;46.056;13.616;2023-02-01T06:01:48;25.73;;;10.90;;
35550;SDS011;21655;46.056;13.616;2023-02-01T06:04:13;26.55;;;10.63;;
35550;SDS011;21655;46.056;13.616;2023-02-01T06:06:39;26.25;;;11.40;;
35550;SDS011;21655;46.056;13.616;2023-02-01T06:09:05;30.02;;;11.77;;
35550;SDS011;21655;46.056;13.616;2023-02-01T06:11:30;27.63;;;11.38;;
35550;SDS011;21655;46.056;13.616;2023-02-01T06:13:56;28.40;;;10.65;;
35550;SDS011;21655;46.056;13.616;2023-02-01T06:16:21;27.17;;;11.23;;
35550;SDS011;21655;46.056;13.616;2023-02-01T06:18:47;28.02;;;10.52;;
35550;SDS011;21655;46.056;13.616;2023-02-01T06:21:13;27.17;;;10.85;;
35550;SDS011;21655;46.056;13.616;2023-02-01T06:23:48;30.60;;;10.98;;
35550;SDS011;21655;46.056;13.616;2023-02-01T06:26:17;32.42;;;11.15;;
35550;SDS011;21655;46.056;13.616;2023-02-01T06:28:43;39.33;;;10.95;;
35550;SDS011;21655;46.056;13.616;2023-02-01T06:31:09;34.83;;;13.65;;
35550;SDS011;21655;46.056;13.616;2023-02-01T06:33:36;32.90;;;13.18;;
35550;SDS011;21655;46.056;13.616;2023-02-01T06:36:03;30.92;;;11.85;;
35550;SDS011;21655;46.056;13.616;2023-02-01T06:38:30;29.17;;;11.35;;
35550;SDS011;21655;46.056;13.616;2023-02-01T06:40:56;25.90;;;10.32;;
35550;SDS011;21655;46.056;13.616;2023-02-01T06:43:23;27.98;;;10.65;;
35550;SDS011;21655;46.056;13.616;2023-02-01T06:45:50;33.80;;;11.65;;
35550;SDS011;21655;46.056;13.616;2023-02-01T06:48:16;28.90;;;11.77;;
35550;SDS011;21655;46.056;13.616;2023-02-01T06:50:42;30.02;;;10.88;;
35550;SDS011;21655;46.056;13.616;2023-02-01T06:53:07;26.52;;;11.57;;
35550;SDS011;21655;46.056;13.616;2023-02-01T06:55:33;27.73;;;10.93;;
35550;SDS011;21655;46.056;13.616;2023-02-01T06:57:58;24.25;;;10.40;;
35550;SDS011;21655;46.056;13.616;2023-02-01T07:00:26;29.23;;;11.98;;
35550;SDS011;21655;46.056;13.616;2023-02-01T07:02:51;26.27;;;12.23;;
35550;SDS011;21655;46.056;13.616;2023-02-01T07:05:17;28.83;;;11.27;;
35550;SDS011;21655;46.056;13.616;2023-02-01T07:07:43;31.50;;;12.13;;
35550;SDS011;21655;46.056;13.616;2023-02-01T07:10:09;29.00;;;11.65;;
35550;SDS011;21655;46.056;13.616;2023-02-01T07:12:34;37.25;;;11.88;;
35550;SDS011;21655;46.056;13.616;2023-02-01T07:15:00;26.83;;;11.93;;
35550;SDS011;21655;46.056;13.616;2023-02-01T07:17:27;32.92;;;10.88;;
35550;SDS011;21655;46.056;13.616;2023-02-01T07:19:54;25.48;;;10.30;;
35550;SDS011;21655;46.056;13.616;2023-02-01T07:22:20;25.67;;;10.63;;
35550;SDS011;21655;46.056;13.616;2023-02-01T07:24:45;24.42;;;10.20;;
35550;SDS011;21655;46.056;13.616;2023-02-01T07:27:11;22.83;;;10.80;;
35550;SDS011;21655;46.056;13.616;2023-02-01T07:29:36;27.55;;;10.73;;
35550;SDS011;21655;46.056;13.616;2023-02-01T07:32:02;24.05;;;10.93;;
35550;SDS011;21655;46.056;13.616;2023-02-01T07:34:27;24.20;;;10.45;;
35550;SDS011;21655;46.056;13.616;2023-02-01T07:36:53;26.08;;;11.45;;
35550;SDS011;21655;46.056;13.616;2023-02-01T07:39:19;27.25;;;11.55;;
35550;SDS011;21655;46.056;13.616;2023-02-01T07:41:45;25.73;;;10.75;;
35550;SDS011;21655;46.056;13.616;2023-02-01T07:44:11;24.70;;;10.65;;
35550;SDS011;21655;46.056;13.616;2023-02-01T07:46:36;31.85;;;10.55;;
35550;SDS011;21655;46.056;13.616;2023-02-01T07:49:04;24.20;;;10.73;;
35550;SDS011;21655;46.056;13.616;2023-02-01T07:51:29;26.98;;;11.15;;
35550;SDS011;21655;46.056;13.616;2023-02-01T07:53:55;29.67;;;10.73;;
35550;SDS011;21655;46.056;13.616;2023-02-01T07:56:20;30.48;;;10.90;;
35550;SDS011;21655;46.056;13.616;2023-02-01T07:58:48;27.25;;;10.23;;
35550;SDS011;21655;46.056;13.616;2023-02-01T08:01:15;28.63;;;10.60;;
35550;SDS011;21655;46.056;13.616;2023-02-01T08:03:45;28.05;;;11.23;;
35550;SDS011;21655;46.056;13.616;2023-02-01T08:06:14;28.70;;;11.38;;
35550;SDS011;21655;46.056;13.616;2023-02-01T08:08:40;24.23;;;10.73;;
35550;SDS011;21655;46.056;13.616;2023-02-01T08:11:06;23.77;;;10.32;;
35550;SDS011;21655;46.056;13.616;2023-02-01T08:13:35;22.08;;;10.65;;
35550;SDS011;21655;46.056;13.616;2023-02-01T08:16:04;40.00;;;11.73;;
35550;SDS011;21655;46.056;13.616;2023-02-01T08:18:32;33.05;;;11.35;;
35550;SDS011;21655;46.056;13.616;2023-02-01T08:21:02;28.98;;;11.60;;
35550;SDS011;21655;46.056;13.616;2023-02-01T08:23:34;34.50;;;11.45;;
35550;SDS011;21655;46.056;13.616;2023-02-01T08:26:19;35.05;;;11.05;;
35550;SDS011;21655;46.056;13.616;2023-02-01T08:28:48;24.08;;;11.30;;
35550;SDS011;21655;46.056;13.616;2023-02-01T08:31:17;20.98;;;10.40;;
35550;SDS011;21655;46.056;13.616;2023-02-01T08:33:47;32.70;;;11.00;;
35550;SDS011;21655;46.056;13.616;2023-02-01T08:36:15;24.05;;;11.27;;
35550;SDS011;21655;46.056;13.616;2023-02-01T08:38:40;30.23;;;11.55;;
35550;SDS011;21655;46.056;13.616;2023-02-01T08:41:28;30.02;;;10.73;;
35550;SDS011;21655;46.056;13.616;2023-02-01T08:43:54;25.00;;;9.73;;
35550;SDS011;21655;46.056;13.616;2023-02-01T08:46:20;25.90;;;10.35;;
35550;SDS011;21655;46.056;13.616;2023-02-01T08:48:47;30.10;;;10.43;;
35550;SDS011;21655;46.056;13.616;2023-02-01T08:51:14;25.73;;;10.63;;
35550;SDS011;21655;46.056;13.616;2023-02-01T08:53:41;32.20;;;11.30;;
35550;SDS011;21655;46.056;13.616;2023-02-01T08:56:07;29.92;;;12.05;;
35550;SDS011;21655;46.056;13.616;2023-02-01T08:58:33;33.40;;;10.95;;
35550;SDS011;21655;46.056;13.616;2023-02-01T09:01:03;28.10;;;11.90;;
35550;SDS011;21655;46.056;13.616;2023-02-01T09:03:30;30.95;;;11.63;;
35550;SDS011;21655;46.056;13.616;2023-02-01T09:06:03;26.33;;;11.57;;
35550;SDS011;21655;46.056;13.616;2023-02-01T09:08:29;34.75;;;11.35;;
35550;SDS011;21655;46.056;13.616;2023-02-01T09:10:59;34.30;;;11.20;;
35550;SDS011;21655;46.056;13.616;2023-02-01T09:13:25;25.80;;;10.45;;
35550;SDS011;21655;46.056;13.616;2023-02-01T09:15:51;25.27;;;10.60;;
35550;SDS011;21655;46.056;13.616;2023-02-01T09:18:17;20.10;;;10.32;;
35550;SDS011;21655;46.056;13.616;2023-02-01T09:20:42;29.45;;;10.85;;
35550;SDS011;21655;46.056;13.616;2023-02-01T09:23:07;24.92;;;10.18;;
35550;SDS011;21655;46.056;13.616;2023-02-01T09:25:33;29.27;;;9.82;;
35550;SDS011;21655;46.056;13.616;2023-02-01T09:27:58;32.72;;;10.45;;
35550;SDS011;21655;46.056;13.616;2023-02-01T09:30:24;35.42;;;11.07;;
35550;SDS011;21655;46.056;13.616;2023-02-01T09:32:50;28.35;;;10.23;;
35550;SDS011;21655;46.056;13.616;2023-02-01T09:35:15;23.65;;;9.70;;
35550;SDS011;21655;46.056;13.616;2023-02-01T09:37:41;33.70;;;11.07;;
35550;SDS011;21655;46.056;13.616;2023-02-01T09:40:08;23.30;;;10.38;;
35550;SDS011;21655;46.056;13.616;2023-02-01T09:48:14;21.90;;;10.52;;
35550;SDS011;21655;46.056;13.616;2023-02-01T09:50:50;41.55;;;12.52;;
35550;SDS011;21655;46.056;13.616;2023-02-01T09:53:26;32.90;;;11.60;;
35550;SDS011;21655;46.056;13.616;2023-02-01T09:56:00;32.28;;;11.73;;
35550;SDS011;21655;46.056;13.616;2023-02-01T09:58:50;25.55;;;11.70;;
35550;SDS011;21655;46.056;13.616;2023-02-01T10:01:24;26.73;;;11.20;;
35550;SDS011;21655;46.056;13.616;2023-02-01T10:03:56;21.58;;;10.63;;
35550;SDS011;21655;46.056;13.616;2023-02-01T10:09:12;30.73;;;11.93;;
35550;SDS011;21655;46.056;13.616;2023-02-01T10:20:51;24.30;;;10.98;;
35550;SDS011;21655;46.056;13.616;2023-02-01T10:26:21;35.13;;;12.23;;
35550;SDS011;21655;46.056;13.616;2023-02-01T10:28:58;30.60;;;11.07;;
35550;SDS011;21655;46.056;13.616;2023-02-01T10:31:26;30.75;;;11.52;;
35550;SDS011;21655;46.056;13.616;2023-02-01T10:33:56;25.55;;;12.32;;
35550;SDS011;21655;46.056;13.616;2023-02-01T10:36:28;27.98;;;12.13;;
35550;SDS011;21655;46.056;13.616;2023-02-01T10:39:01;24.45;;;12.25;;
35550;SDS011;21655;46.056;13.616;2023-02-01T10:41:35;26.70;;;12.85;;
35550;SDS011;21655;46.056;13.616;2023-02-01T10:44:05;26.75;;;13.23;;
35550;SDS011;21655;46.056;13.616;2023-02-01T10:46:36;27.00;;;12.85;;
35550;SDS011;21655;46.056;13.616;2023-02-01T10:49:03;30.98;;;12.93;;
35550;SDS011;21655;46.056;13.616;2023-02-01T10:51:51;27.63;;;13.15;;
35550;SDS011;21655;46.056;13.616;2023-02-01T10:54:38;32.20;;;12.63;;
35550;SDS011;21655;46.056;13.616;2023-02-01T10:57:11;29.75;;;11.63;;
35550;SDS011;21655;46.056;13.616;2023-02-01T10:59:46;28.63;;;12.43;;
35550;SDS011;21655;46.056;13.616;2023-02-01T11:02:19;29.27;;;13.05;;
35550;SDS011;21655;46.056;13.616;2023-02-01T11:07:37;29.63;;;12.02;;
35550;SDS011;21655;46.056;13.616;2023-02-01T11:10:05;41.22;;;13.77;;
35550;SDS011;21655;46.056;13.616;2023-02-01T11:17:47;26.50;;;13.45;;
35550;SDS011;21655;46.056;13.616;2023-02-01T11:20:21;30.33;;;13.77;;
35550;SDS011;21655;46.056;13.616;2023-02-01T11:22:58;32.17;;;13.68;;
35550;SDS011;21655;46.056;13.616;2023-02-01T11:25:25;32.35;;;13.38;;
35550;SDS011;21655;46.056;13.616;2023-02-01T11:27:51;27.92;;;13.25;;
35550;SDS011;21655;46.056;13.616;2023-02-01T11:30:36;29.02;;;13.63;;
35550;SDS011;21655;46.056;13.616;2023-02-01T11:33:05;30.38;;;13.38;;
35550;SDS011;21655;46.056;13.616;2023-02-01T11:35:35;27.02;;;13.50;;
35550;SDS011;21655;46.056;13.616;2023-02-01T11:38:09;32.13;;;15.63;;
35550;SDS011;21655;46.056;13.616;2023-02-01T11:40:38;29.27;;;14.57;;
35550;SDS011;21655;46.056;13.616;2023-02-01T11:43:08;31.27;;;14.50;;
35550;SDS011;21655;46.056;13.616;2023-02-01T11:45:53;28.23;;;13.90;;
35550;SDS011;21655;46.056;13.616;2023-02-01T11:48:20;26.20;;;13.20;;
35550;SDS011;21655;46.056;13.616;2023-02-01T12:07:24;29.73;;;16.83;;
35550;SDS011;21655;46.056;13.616;2023-02-01T12:13:07;30.63;;;17.83;;
35550;SDS011;21655;46.056;13.616;2023-02-01T12:19:00;29.60;;;17.05;;
35550;SDS011;21655;46.056;13.616;2023-02-01T12:21:48;36.22;;;18.85;;
35550;SDS011;21655;46.056;13.616;2023-02-01T12:35:53;39.17;;;18.77;;
35550;SDS011;21655;46.056;13.616;2023-02-01T12:47:47;32.80;;;19.17;;
35550;SDS011;21655;46.056;13.616;2023-02-01T12:53:02;30.77;;;18.52;;
35550;SDS011;21655;46.056;13.616;2023-02-01T12:55:44;33.97;;;18.55;;
35550;SDS011;21655;46.056;13.616;2023-02-01T12:58:20;33.58;;;20.55;;
35550;SDS011;21655;46.056;13.616;2023-02-01T13:00:51;35.40;;;20.15;;
35550;SDS011;21655;46.056;13.616;2023-02-01T13:06:12;34.85;;;20.60;;
35550;SDS011;21655;46.056;13.616;2023-02-01T13:08:48;33.33;;;19.48;;
35550;SDS011;21655;46.056;13.616;2023-02-01T13:11:27;34.15;;;19.25;;
35550;SDS011;21655;46.056;13.616;2023-02-01T13:16:44;37.70;;;20.75;;
35550;SDS011;21655;46.056;13.616;2023-02-01T13:19:17;35.40;;;20.70;;
35550;SDS011;21655;46.056;13.616;2023-02-01T13:21:53;41.80;;;20.38;;
35550;SDS011;21655;46.056;13.616;2023-02-01T13:24:43;38.57;;;21.93;;
35550;SDS011;21655;46.056;13.616;2023-02-01T13:27:13;37.35;;;20.75;;
35550;SDS011;21655;46.056;13.616;2023-02-01T13:30:24;36.50;;;22.17;;
35550;SDS011;21655;46.056;13.616;2023-02-01T13:40:44;44.20;;;22.73;;
35550;SDS011;21655;46.056;13.616;2023-02-01T13:43:38;36.60;;;20.52;;
35550;SDS011;21655;46.056;13.616;2023-02-01T13:46:07;34.95;;;20.48;;
35550;SDS011;21655;46.056;13.616;2023-02-01T13:48:39;30.95;;;19.25;;
35550;SDS011;21655;46.056;13.616;2023-02-01T13:51:12;35.88;;;19.92;;
35550;SDS011;21655;46.056;13.616;2023-02-01T13:53:43;34.78;;;20.38;;
35550;SDS011;21655;46.056;13.616;2023-02-01T13:56:16;32.08;;;20.13;;
35550;SDS011;21655;46.056;13.616;2023-02-01T13:58:44;32.67;;;20.23;;
35550;SDS011;21655;46.056;13.616;2023-02-01T14:11:37;44.80;;;25.10;;
35550;SDS011;21655;46.056;13.616;2023-02-01T14:16:43;47.58;;;26.65;;
35550;SDS011;21655;46.056;13.616;2023-02-01T14:19:30;47.03;;;23.80;;
35550;SDS011;21655;46.056;13.616;2023-02-01T14:21:58;47.72;;;24.77;;
35550;SDS011;21655;46.056;13.616;2023-02-01T14:24:32;47.15;;;26.05;;
35550;SDS011;21655;46.056;13.616;2023-02-01T14:27:00;78.25;;;40.55;;
35550;SDS011;21655;46.056;13.616;2023-02-01T14:29:39;54.00;;;29.33;;
35550;SDS011;21655;46.056;13.616;2023-02-01T14:32:17;47.05;;;25.10;;
35550;SDS011;21655;46.056;13.616;2023-02-01T14:53:03;55.40;;;31.15;;
35550;SDS011;21655;46.056;13.616;2023-02-01T14:58:27;54.17;;;29.65;;
35550;SDS011;21655;46.056;13.616;2023-02-01T15:09:16;65.65;;;36.03;;
35550;SDS011;21655;46.056;13.616;2023-02-01T15:14:28;83.70;;;46.50;;
35550;SDS011;21655;46.056;13.616;2023-02-01T15:16:56;73.38;;;40.13;;
35550;SDS011;21655;46.056;13.616;2023-02-01T15:19:23;81.20;;;49.15;;
35550;SDS011;21655;46.056;13.616;2023-02-01T15:21:51;70.35;;;40.65;;
35550;SDS011;21655;46.056;13.616;2023-02-01T15:24:20;57.70;;;29.92;;
35550;SDS011;21655;46.056;13.616;2023-02-01T15:26:51;55.35;;;31.38;;
35550;SDS011;21655;46.056;13.616;2023-02-01T15:29:18;55.45;;;31.17;;
35550;SDS011;21655;46.056;13.616;2023-02-01T15:31:46;48.42;;;26.67;;
35550;SDS011;21655;46.056;13.616;2023-02-01T15:34:14;78.18;;;44.42;;
35550;SDS011;21655;46.056;13.616;2023-02-01T15:36:40;60.60;;;35.60;;
35550;SDS011;21655;46.056;13.616;2023-02-01T15:39:12;59.13;;;32.03;;
35550;SDS011;21655;46.056;13.616;2023-02-01T15:41:44;54.97;;;29.02;;
35550;SDS011;21655;46.056;13.616;2023-02-01T15:46:48;55.85;;;28.10;;
35550;SDS011;21655;46.056;13.616;2023-02-01T15:49:26;52.22;;;26.00;;
35550;SDS011;21655;46.056;13.616;2023-02-01T15:51:54;51.78;;;27.52;;
35550;SDS011;21655;46.056;13.616;2023-02-01T15:54:28;58.97;;;30.35;;
35550;SDS011;21655;46.056;13.616;2023-02-01T15:56:58;55.53;;;29.10;;
35550;SDS011;21655;46.056;13.616;2023-02-01T15:59:39;57.35;;;27.30;;
35550;SDS011;21655;46.056;13.616;2023-02-01T16:08:03;49.88;;;24.50;;
35550;SDS011;21655;46.056;13.616;2023-02-01T16:10:30;49.45;;;24.73;;
35550;SDS011;21655;46.056;13.616;2023-02-01T16:12:56;53.80;;;26.38;;
35550;SDS011;21655;46.056;13.616;2023-02-01T16:15:25;58.72;;;29.98;;
35550;SDS011;21655;46.056;13.616;2023-02-01T16:17:54;67.97;;;33.72;;
35550;SDS011;21655;46.056;13.616;2023-02-01T16:20:20;63.30;;;29.08;;
35550;SDS011;21655;46.056;13.616;2023-02-01T16:22:45;61.20;;;29.70;;
35550;SDS011;21655;46.056;13.616;2023-02-01T16:25:10;62.40;;;30.15;;
35550;SDS011;21655;46.056;13.616;2023-02-01T16:27:36;62.72;;;30.67;;
35550;SDS011;21655;46.056;13.616;2023-02-01T16:30:01;77.88;;;39.78;;
35550;SDS011;21655;46.056;13.616;2023-02-01T16:32:27;74.35;;;38.78;;
35550;SDS011;21655;46.056;13.616;2023-02-01T16:34:54;65.93;;;31.88;;
35550;SDS011;21655;46.056;13.616;2023-02-01T16:37:22;66.07;;;30.60;;
35550;SDS011;21655;46.056;13.616;2023-02-01T16:39:49;58.05;;;30.15;;
35550;SDS011;21655;46.056;13.616;2023-02-01T16:42:15;67.15;;;32.28;;
35550;SDS011;21655;46.056;13.616;2023-02-01T16:44:42;74.55;;;34.10;;
35550;SDS011;21655;46.056;13.616;2023-02-01T16:47:12;80.15;;;34.40;;
35550;SDS011;21655;46.056;13.616;2023-02-01T16:49:41;76.27;;;33.97;;
35550;SDS011;21655;46.056;13.616;2023-02-01T16:52:19;77.88;;;35.08;;
35550;SDS011;21655;46.056;13.616;2023-02-01T16:54:47;75.15;;;33.45;;
35550;SDS011;21655;46.056;13.616;2023-02-01T16:57:14;86.32;;;34.72;;
35550;SDS011;21655;46.056;13.616;2023-02-01T16:59:41;105.13;;;38.50;;
35550;SDS011;21655;46.056;13.616;2023-02-01T17:02:12;99.47;;;41.72;;
35550;SDS011;21655;46.056;13.616;2023-02-01T17:04:39;168.23;;;69.35;;
35550;SDS011;21655;46.056;13.616;2023-02-01T17:07:04;123.35;;;55.03;;
35550;SDS011;21655;46.056;13.616;2023-02-01T17:09:37;88.95;;;44.05;;
35550;SDS011;21655;46.056;13.616;2023-02-01T17:12:03;81.07;;;38.30;;
35550;SDS011;21655;46.056;13.616;2023-02-01T17:14:30;92.70;;;38.97;;
35550;SDS011;21655;46.056;13.616;2023-02-01T17:16:57;133.30;;;61.17;;
35550;SDS011;21655;46.056;13.616;2023-02-01T17:19:22;87.45;;;40.72;;
35550;SDS011;21655;46.056;13.616;2023-02-01T17:21:49;106.45;;;47.10;;
35550;SDS011;21655;46.056;13.616;2023-02-01T17:24:19;99.28;;;42.70;;
35550;SDS011;21655;46.056;13.616;2023-02-01T17:26:46;102.10;;;45.10;;
35550;SDS011;21655;46.056;13.616;2023-02-01T17:29:13;96.15;;;41.70;;
35550;SDS011;21655;46.056;13.616;2023-02-01T17:31:40;93.85;;;44.25;;
35550;SDS011;21655;46.056;13.616;2023-02-01T17:34:08;99.55;;;42.72;;
35550;SDS011;21655;46.056;13.616;2023-02-01T17:36:35;120.30;;;50.58;;
35550;SDS011;21655;46.056;13.616;2023-02-01T17:39:01;120.70;;;51.28;;
35550;SDS011;21655;46.056;13.616;2023-02-01T17:41:27;110.38;;;48.55;;
35550;SDS011;21655;46.056;13.616;2023-02-01T17:43:53;108.88;;;49.90;;
35550;SDS011;21655;46.056;13.616;2023-02-01T17:46:18;104.32;;;47.60;;
35550;SDS011;21655;46.056;13.616;2023-02-01T17:48:45;111.50;;;49.40;;
35550;SDS011;21655;46.056;13.616;2023-02-01T17:53:39;105.07;;;47.95;;
35550;SDS011;21655;46.056;13.616;2023-02-01T17:56:04;114.53;;;44.72;;
35550;SDS011;21655;46.056;13.616;2023-02-01T17:58:30;118.70;;;49.50;;
35550;SDS011;21655;46.056;13.616;2023-02-01T18:00:57;115.50;;;48.38;;
35550;SDS011;21655;46.056;13.616;2023-02-01T18:03:27;111.53;;;48.42;;
35550;SDS011;21655;46.056;13.616;2023-02-01T18:05:55;109.22;;;48.50;;
35550;SDS011;21655;46.056;13.616;2023-02-01T18:08:24;102.00;;;47.58;;
35550;SDS011;21655;46.056;13.616;2023-02-01T18:10:53;119.95;;;47.50;;
35550;SDS011;21655;46.056;13.616;2023-02-01T18:13:20;107.95;;;45.90;;
35550;SDS011;21655;46.056;13.616;2023-02-01T18:15:46;123.05;;;48.97;;
35550;SDS011;21655;46.056;13.616;2023-02-01T18:18:12;122.97;;;49.33;;
35550;SDS011;21655;46.056;13.616;2023-02-01T18:20:38;108.28;;;46.60;;
35550;SDS011;21655;46.056;13.616;2023-02-01T18:23:10;117.28;;;49.70;;
35550;SDS011;21655;46.056;13.616;2023-02-01T18:25:39;120.35;;;54.92;;
35550;SDS011;21655;46.056;13.616;2023-02-01T18:28:05;114.40;;;49.78;;
35550;SDS011;21655;46.056;13.616;2023-02-01T18:30:31;118.90;;;51.88;;
35550;SDS011;21655;46.056;13.616;2023-02-01T18:32:58;107.40;;;48.92;;
35550;SDS011;21655;46.056;13.616;2023-02-01T18:35:25;103.28;;;48.33;;
35550;SDS011;21655;46.056;13.616;2023-02-01T18:37:54;122.43;;;50.10;;
35550;SDS011;21655;46.056;13.616;2023-02-01T18:40:22;111.45;;;48.08;;
35550;SDS011;21655;46.056;13.616;2023-02-01T18:42:49;132.68;;;56.13;;
35550;SDS011;21655;46.056;13.616;2023-02-01T18:45:31;157.63;;;62.15;;
35550;SDS011;21655;46.056;13.616;2023-02-01T18:48:00;117.70;;;50.30;;
35550;SDS011;21655;46.056;13.616;2023-02-01T18:50:31;118.32;;;52.05;;
35550;SDS011;21655;46.056;13.616;2023-02-01T18:53:02;126.72;;;52.33;;
35550;SDS011;21655;46.056;13.616;2023-02-01T18:55:29;138.30;;;54.45;;
35550;SDS011;21655;46.056;13.616;2023-02-01T18:57:58;135.60;;;57.47;;
35550;SDS011;21655;46.056;13.616;2023-02-01T19:00:24;112.63;;;52.03;;
35550;SDS011;21655;46.056;13.616;2023-02-01T19:02:50;141.00;;;57.75;;